Coram, Montana
Current Conditions -  °F | °C
As of 2:29 PM on Friday 19 Dec 2014 (Local Time) from KGPI Reporting Station
Light Rain Light Rain  
Wind Chill: 34°   Ceiling: 1800
Heat Index: 34°   Visibility: 2mi
Dew Point: 33°   Wind: 0mph
Humidity: 96%   Direction: NA
Pressure: 29.86"   Gusts: NA
Location:  48.42°N, 114.05°W
Report Text: KGPI 192129Z 00000KT 2SM -RA BR OVC018 01/01 A2986 RMK AO2 P0003 T00110006
Loading
Personal Weather Stations






























Interactive Weather Map New forecast layout! Learn more

10-Day Weather Forecast

Advertisements
Track Severe Weather on mobile